Airport View

Enter AWOS ICAO identifier for current METAR.

ex. KFNL

CYCD 260400Z 08003KT 25SM SCT064 SCT140 BKN260 19/09 A2984 RMK SC3AC1CI3 LAST STFD OBS/NEXT 261300Z SLP105 DENSITY ALT 700FT

26 Jun 2019 12:34

Other Area AWOS: CWEL - CWGB - CWVF - CYVR

TAF CYCD 252341Z 2600/2604 02008KT P6SM SCT050 TEMPO 2600/2601 P6SM -SHRA BKN040 RMK NXT FCST WILL BE ISSUED AT 261445Z